Time;durP1;ratioP1;P1;durP2;ratioP2;P2;SDS_P1;SDS_P2;PMS_P1;PMS_P2;Temp;Humidity;BMP_temperature;BMP_pressure;BME280_temperature;BME280_humidity;BME280_pressure;Samples;Min_cycle;Max_cycle;Signal;HPM_P1;HPM_P2
2022/10/16 04:48:25;;;;;;;;;;;20.30;62.20;;;;;;5105881;28;20300;-79
2022/10/16 04:50:52;;;;;;;;;;;20.40;62.90;;;;;;5112945;28;19919;-78
2022/10/16 04:53:18;;;;;;;;;;;20.50;62.70;;;;;;5113968;28;20331;-80
2022/10/16 04:55:45;;;;;;;;;;;20.50;62.80;;;;;;5113931;28;19912;-80
2022/10/16 04:58:12;;;;;;;;;;;20.60;62.20;;;;;;5113513;28;20297;-77
2022/10/16 05:00:39;;;;;;;;;;;20.50;62.40;;;;;;5113209;28;19908;-81
2022/10/16 05:03:08;;;;;;;;;;;20.50;63.20;;;;;;5113934;28;19985;-83
2022/10/16 05:05:35;;;;;;;;;;;20.50;62.60;;;;;;5113154;28;19934;-81
2022/10/16 05:08:02;;;;;;;;;;;20.50;63.30;;;;;;5113441;28;20352;-82
2022/10/16 05:10:29;;;;;;;;;;;20.60;63.20;;;;;;5114131;28;19947;-81
2022/10/16 05:12:55;;;;;;;;;;;20.60;63.00;;;;;;5113723;28;19907;-78
2022/10/16 05:15:24;;;;;;;;;;;20.60;62.60;;;;;;5113524;28;19912;-81
2022/10/16 05:17:54;;;;;;;;;;;20.60;62.60;;;;;;5110947;28;19907;-82
2022/10/16 05:20:21;;;;;;;;;;;20.50;62.70;;;;;;5112939;28;19927;-75
2022/10/16 05:22:47;;;;;;;;;;;20.50;63.50;;;;;;5098954;28;20296;-75
2022/10/16 05:25:14;;;;;;;;;;;20.40;63.70;;;;;;5108599;28;19999;-76
2022/10/16 05:27:40;;;;;;;;;;;20.40;63.80;;;;;;5111277;28;19955;-76
2022/10/16 05:30:07;;;;;;;;;;;20.40;63.70;;;;;;5112441;28;19916;-76
2022/10/16 05:32:34;;;;;;;;;;;20.40;64.00;;;;;;5113442;28;19918;-76
2022/10/16 05:35:01;;;;;;;;;;;20.40;64.10;;;;;;5112362;28;19912;-76
2022/10/16 05:37:30;;;;;;;;;;;20.30;64.30;;;;;;5113291;28;20404;-75
2022/10/16 05:39:57;;;;;;;;;;;20.30;64.80;;;;;;5112894;28;19907;-76
2022/10/16 05:42:23;;;;;;;;;;;20.30;64.80;;;;;;5107476;28;20297;-80
2022/10/16 05:44:50;;;;;;;;;;;20.30;65.00;;;;;;5088722;28;20010;-77
2022/10/16 05:47:17;;;;;;;;;;;20.30;65.00;;;;;;5112400;28;19935;-76
2022/10/16 05:49:43;;;;;;;;;;;20.30;65.10;;;;;;5112659;28;21226;-80
2022/10/16 05:52:10;;;;;;;;;;;20.30;65.30;;;;;;5112852;28;19908;-78
2022/10/16 05:54:36;;;;;;;;;;;20.20;65.00;;;;;;5112246;28;19923;-79
2022/10/16 05:57:05;;;;;;;;;;;20.20;65.50;;;;;;5112887;28;20285;-79
2022/10/16 05:59:32;;;;;;;;;;;20.20;66.00;;;;;;5113026;28;19919;-80
2022/10/16 06:01:59;;;;;;;;;;;20.20;66.90;;;;;;5111297;28;19919;-82
2022/10/16 06:04:25;;;;;;;;;;;20.10;66.40;;;;;;5111929;28;20004;-79
2022/10/16 06:06:52;;;;;;;;;;;20.10;66.40;;;;;;5112323;28;19908;-81
2022/10/16 06:09:19;;;;;;;;;;;20.10;66.90;;;;;;5111824;28;19912;-79
2022/10/16 06:11:45;;;;;;;;;;;20.10;67.00;;;;;;5112192;28;20370;-81
2022/10/16 06:14:12;;;;;;;;;;;20.00;67.00;;;;;;5112289;28;19908;-83
2022/10/16 06:16:38;;;;;;;;;;;20.00;67.40;;;;;;5112216;28;19931;-83
2022/10/16 06:19:09;;;;;;;;;;;19.90;66.90;;;;;;5109227;28;19922;-76
2022/10/16 06:21:35;;;;;;;;;;;19.80;67.10;;;;;;5111135;28;19912;-78
2022/10/16 06:24:02;;;;;;;;;;;19.70;67.20;;;;;;5112322;28;19946;-75
2022/10/16 06:26:29;;;;;;;;;;;19.70;67.70;;;;;;5094156;28;19923;-85
2022/10/16 06:28:56;;;;;;;;;;;19.70;67.80;;;;;;5110072;28;19965;-84
2022/10/16 06:31:27;;;;;;;;;;;19.70;67.70;;;;;;5094325;28;20415;-77
2022/10/16 06:33:53;;;;;;;;;;;19.70;67.40;;;;;;5112489;28;19994;-75
2022/10/16 06:36:20;;;;;;;;;;;19.80;67.40;;;;;;5103266;28;19912;-78
2022/10/16 06:38:47;;;;;;;;;;;19.80;67.80;;;;;;5112175;28;19915;-77
2022/10/16 06:41:14;;;;;;;;;;;19.80;67.90;;;;;;5112065;28;19961;-83
2022/10/16 06:43:41;;;;;;;;;;;19.80;67.30;;;;;;5112046;28;20050;-86
2022/10/16 06:46:10;;;;;;;;;;;19.80;67.70;;;;;;5091875;28;20228;-77
2022/10/16 06:48:37;;;;;;;;;;;19.70;67.50;;;;;;5110881;28;20441;-80
2022/10/16 06:51:10;;;;;;;;;;;19.70;67.60;;;;;;5093315;28;19963;-82
2022/10/16 06:53:39;;;;;;;;;;;19.70;67.70;;;;;;5111647;28;20403;-78
2022/10/16 06:56:10;;;;;;;;;;;19.70;67.80;;;;;;5100741;28;20349;-75
2022/10/16 06:58:36;;;;;;;;;;;19.70;68.00;;;;;;5111308;28;20006;-83
2022/10/16 07:01:03;;;;;;;;;;;19.60;67.80;;;;;;5093561;28;19912;-81
2022/10/16 07:03:30;;;;;;;;;;;19.50;68.20;;;;;;5110058;28;19919;-78
2022/10/16 07:05:57;;;;;;;;;;;19.50;68.90;;;;;;5092838;28;20357;-75
2022/10/16 07:08:23;;;;;;;;;;;19.50;68.20;;;;;;5099286;28;19920;-79
2022/10/16 07:10:58;;;;;;;;;;;19.50;68.40;;;;;;5110058;28;19920;-83
2022/10/16 07:13:24;;;;;;;;;;;19.50;68.40;;;;;;5110313;28;19919;-77
2022/10/16 07:15:51;;;;;;;;;;;19.50;68.70;;;;;;5111399;28;19919;-80
2022/10/16 07:18:18;;;;;;;;;;;19.50;68.80;;;;;;5090550;28;19911;-75
2022/10/16 07:20:44;;;;;;;;;;;19.40;68.40;;;;;;5110688;28;20270;-75
2022/10/16 07:23:11;;;;;;;;;;;19.30;68.50;;;;;;5110852;28;19959;-78
2022/10/16 07:25:38;;;;;;;;;;;19.30;68.40;;;;;;5102625;28;19941;-75
2022/10/16 07:28:04;;;;;;;;;;;19.40;69.30;;;;;;5108864;28;19912;-76
2022/10/16 07:30:31;;;;;;;;;;;19.40;68.10;;;;;;5111009;28;19912;-77
2022/10/16 07:32:58;;;;;;;;;;;19.40;67.80;;;;;;5097826;28;19915;-77
2022/10/16 07:35:24;;;;;;;;;;;19.30;68.00;;;;;;5110870;28;19920;-80
2022/10/16 07:37:51;;;;;;;;;;;19.40;68.80;;;;;;5110814;28;20351;-80
2022/10/16 07:40:18;;;;;;;;;;;19.30;68.60;;;;;;5110601;28;19912;-80
2022/10/16 07:42:44;;;;;;;;;;;19.40;69.20;;;;;;5110662;28;19920;-81
2022/10/16 07:45:11;;;;;;;;;;;19.30;69.20;;;;;;5110209;28;19915;-80
2022/10/16 07:47:38;;;;;;;;;;;19.30;69.50;;;;;;5110287;28;20335;-77
2022/10/16 07:50:05;;;;;;;;;;;19.40;69.50;;;;;;5110057;28;19939;-83
2022/10/16 07:52:31;;;;;;;;;;;19.40;69.60;;;;;;5110022;28;19951;-76
2022/10/16 07:54:58;;;;;;;;;;;19.30;69.60;;;;;;5110267;28;20042;-78
2022/10/16 07:57:25;;;;;;;;;;;19.30;69.60;;;;;;5109722;28;19923;-78
2022/10/16 07:59:51;;;;;;;;;;;19.20;70.00;;;;;;5110172;28;19966;-80
2022/10/16 08:02:18;;;;;;;;;;;19.20;70.30;;;;;;5104626;28;19969;-77
2022/10/16 08:04:46;;;;;;;;;;;19.20;70.00;;;;;;5098247;28;19924;-80
2022/10/16 08:07:13;;;;;;;;;;;19.20;70.20;;;;;;5078140;28;19925;-79
2022/10/16 08:09:40;;;;;;;;;;;19.10;69.80;;;;;;5110198;28;19913;-80
2022/10/16 08:12:10;;;;;;;;;;;19.00;69.80;;;;;;5110012;28;20269;-76
2022/10/16 08:14:36;;;;;;;;;;;19.00;70.10;;;;;;5110297;28;19908;-82
2022/10/16 08:17:03;;;;;;;;;;;19.00;70.00;;;;;;5108471;28;19908;-85
2022/10/16 08:19:34;;;;;;;;;;;18.90;69.60;;;;;;5108532;28;19915;-80
2022/10/16 08:22:01;;;;;;;;;;;18.90;69.50;;;;;;5109057;28;20006;-82
2022/10/16 08:24:30;;;;;;;;;;;18.90;69.80;;;;;;5109556;28;20334;-79
2022/10/16 08:26:57;;;;;;;;;;;19.00;70.00;;;;;;5105027;28;19915;-81
2022/10/16 08:29:23;;;;;;;;;;;18.90;70.30;;;;;;5108146;28;19916;-75
2022/10/16 08:31:50;;;;;;;;;;;18.90;70.40;;;;;;5103131;28;19989;-75
2022/10/16 08:34:17;;;;;;;;;;;18.90;70.40;;;;;;5106626;28;19912;-77
2022/10/16 08:36:44;;;;;;;;;;;18.90;70.00;;;;;;5108565;28;20300;-80
2022/10/16 08:39:10;;;;;;;;;;;18.90;70.20;;;;;;5106414;28;20361;-78
2022/10/16 08:41:46;;;;;;;;;;;18.90;69.20;;;;;;5104368;28;19920;-80
2022/10/16 08:44:28;;;;;;;;;;;18.90;69.40;;;;;;5107603;28;19924;-82
2022/10/16 08:47:15;;;;;;;;;;;18.90;69.40;;;;;;5103441;28;19926;-85
2022/10/16 08:49:42;;;;;;;;;;;18.90;68.90;;;;;;5097716;28;19916;-82
2022/10/16 08:52:13;;;;;;;;;;;18.80;68.80;;;;;;5090543;28;19937;-78
2022/10/16 08:54:41;;;;;;;;;;;18.80;68.60;;;;;;5077050;28;20282;-78
2022/10/16 08:57:14;;;;;;;;;;;18.80;68.90;;;;;;5091791;28;19916;-77
2022/10/16 08:59:41;;;;;;;;;;;18.80;68.60;;;;;;5089708;28;19912;-80
2022/10/16 09:02:25;;;;;;;;;;;18.70;68.60;;;;;;5089448;28;19912;-78
2022/10/16 09:04:58;;;;;;;;;;;18.80;68.60;;;;;;5090250;28;19924;-83
2022/10/16 09:07:31;;;;;;;;;;;18.70;68.60;;;;;;5067490;28;20358;-81
2022/10/16 09:10:04;;;;;;;;;;;18.70;68.60;;;;;;5089094;28;19912;-84
2022/10/16 09:12:37;;;;;;;;;;;18.70;68.60;;;;;;5075068;28;19923;-81
2022/10/16 09:15:19;;;;;;;;;;;18.70;69.10;;;;;;5070490;28;19913;-79
2022/10/16 09:18:15;;;;;;;;;;;18.80;68.80;;;;;;5091658;28;19919;-81
2022/10/16 09:20:58;;;;;;;;;;;18.70;68.80;;;;;;5076558;28;19970;-83
2022/10/16 09:23:25;;;;;;;;;;;18.70;69.30;;;;;;5088638;28;19920;-81
2022/10/16 09:25:51;;;;;;;;;;;18.70;69.40;;;;;;5080512;28;19973;-83
2022/10/16 09:28:18;;;;;;;;;;;18.70;69.70;;;;;;5072596;28;19916;-82
2022/10/16 09:30:45;;;;;;;;;;;18.70;69.50;;;;;;5078621;28;19924;-82
2022/10/16 09:33:12;;;;;;;;;;;18.70;69.70;;;;;;5087108;28;19923;-85
2022/10/16 09:35:39;;;;;;;;;;;18.60;69.50;;;;;;5070281;28;19981;-86
2022/10/16 09:38:06;;;;;;;;;;;18.60;69.60;;;;;;5073982;28;19985;-84
2022/10/16 09:40:34;;;;;;;;;;;18.60;69.30;;;;;;5073690;28;19927;-85
2022/10/16 09:43:13;;;;;;;;;;;18.60;68.50;;;;;;5092432;28;19924;-88
2022/10/16 09:45:40;;;;;;;;;;;18.60;68.10;;;;;;5074828;28;20289;-84
2022/10/16 09:48:12;;;;;;;;;;;18.60;68.20;;;;;;5108402;28;19924;-84
2022/10/16 09:50:39;;;;;;;;;;;18.60;68.00;;;;;;5101894;28;19923;-86
2022/10/16 09:53:13;;;;;;;;;;;18.60;67.50;;;;;;5107629;28;19938;-77
2022/10/16 09:55:52;;;;;;;;;;;18.60;68.30;;;;;;5108514;28;19998;-81
2022/10/16 09:58:21;;;;;;;;;;;18.60;69.80;;;;;;5095170;28;20513;-83
2022/10/16 10:00:52;;;;;;;;;;;18.60;72.20;;;;;;5107347;28;19992;-82
2022/10/16 10:03:46;;;;;;;;;;;18.50;73.80;;;;;;5114825;27;20361;-80
2022/10/16 10:06:17;;;;;;;;;;;18.50;75.50;;;;;;5103849;27;19943;-82
2022/10/16 10:09:02;;;;;;;;;;;18.50;76.40;;;;;;5097089;28;20357;-80
2022/10/16 10:12:01;;;;;;;;;;;18.50;77.10;;;;;;5119137;27;19998;-80
2022/10/16 10:14:38;;;;;;;;;;;18.40;77.50;;;;;;5020372;27;19942;-81
2022/10/16 10:17:31;;;;;;;;;;;18.40;77.70;;;;;;5091050;28;19918;-85
2022/10/16 10:20:00;;;;;;;;;;;18.30;78.00;;;;;;5090892;28;19915;-81
2022/10/16 10:22:40;;;;;;;;;;;18.30;78.30;;;;;;5112323;28;19932;-82
2022/10/16 10:25:13;;;;;;;;;;;18.20;78.30;;;;;;5112322;28;19912;-78
2022/10/16 10:27:43;;;;;;;;;;;18.30;77.90;;;;;;5100120;27;19936;-76
2022/10/16 10:30:12;;;;;;;;;;;18.20;78.00;;;;;;5103955;27;20270;-79
2022/10/16 10:32:42;;;;;;;;;;;18.30;77.60;;;;;;5110716;27;19988;-78
2022/10/16 10:35:32;;;;;;;;;;;18.30;77.80;;;;;;5095391;28;19912;-76
2022/10/16 10:37:59;;;;;;;;;;;18.30;77.40;;;;;;5103879;27;19931;-79
2022/10/16 10:40:45;;;;;;;;;;;18.30;77.20;;;;;;5114318;27;19919;-79
2022/10/16 10:43:14;;;;;;;;;;;18.30;77.20;;;;;;5112872;27;19939;-81
2022/10/16 10:45:45;;;;;;;;;;;18.30;76.50;;;;;;5109615;28;20438;-84
2022/10/16 10:48:18;;;;;;;;;;;18.30;76.50;;;;;;5121046;27;19959;-84
2022/10/16 10:50:56;;;;;;;;;;;18.30;76.60;;;;;;5108474;27;19916;-83
2022/10/16 10:53:41;;;;;;;;;;;18.40;76.70;;;;;;5097676;28;20479;-81
2022/10/16 10:56:25;;;;;;;;;;;18.40;77.00;;;;;;5122675;27;20016;-87
2022/10/16 10:58:58;;;;;;;;;;;18.30;77.50;;;;;;5111933;27;20283;-82
2022/10/16 11:01:29;;;;;;;;;;;18.30;78.70;;;;;;5123006;27;19931;-91
2022/10/16 11:04:22;;;;;;;;;;;18.30;78.90;;;;;;5093490;28;19919;-78
2022/10/16 11:07:12;;;;;;;;;;;18.30;79.50;;;;;;5083241;28;19915;-80
2022/10/16 11:09:40;;;;;;;;;;;18.30;79.70;;;;;;5094394;27;19916;-83
2022/10/16 11:12:06;;;;;;;;;;;18.30;80.20;;;;;;5093554;28;19912;-92
2022/10/16 11:14:41;;;;;;;;;;;18.30;80.50;;;;;;5111844;28;19912;-90
2022/10/16 11:17:12;;;;;;;;;;;18.30;80.80;;;;;;5095899;28;19912;-89
2022/10/16 11:19:44;;;;;;;;;;;18.30;81.20;;;;;;5081980;28;20048;-86
2022/10/16 11:22:29;;;;;;;;;;;18.30;81.30;;;;;;5113945;28;19912;-88
2022/10/16 11:25:02;;;;;;;;;;;18.30;81.60;;;;;;5110994;28;19911;-88
2022/10/16 11:27:40;;;;;;;;;;;18.30;81.90;;;;;;5095567;28;19915;-86
2022/10/16 11:30:12;;;;;;;;;;;18.30;81.90;;;;;;5097786;28;19965;-89
2022/10/16 11:32:54;;;;;;;;;;;18.30;82.00;;;;;;5095454;28;20002;-90
2022/10/16 11:35:33;;;;;;;;;;;18.30;81.60;;;;;;5113389;28;19977;-89
2022/10/16 11:38:00;;;;;;;;;;;18.30;81.90;;;;;;5112964;28;20313;-86
2022/10/16 11:40:29;;;;;;;;;;;18.30;81.90;;;;;;5081751;28;19919;-87
2022/10/16 11:43:04;;;;;;;;;;;18.20;81.90;;;;;;5074424;28;19915;-89
2022/10/16 11:45:36;;;;;;;;;;;18.20;82.00;;;;;;5113840;28;19908;-87
2022/10/16 11:48:02;;;;;;;;;;;18.20;82.20;;;;;;5095221;28;19951;-88
2022/10/16 11:50:32;;;;;;;;;;;18.20;82.40;;;;;;5102300;28;19912;-88
2022/10/16 11:53:05;;;;;;;;;;;18.30;82.60;;;;;;5113134;28;19916;-86
2022/10/16 11:55:41;;;;;;;;;;;18.20;82.70;;;;;;5113555;28;19915;-87
2022/10/16 11:58:14;;;;;;;;;;;18.20;82.60;;;;;;5113148;28;19953;-88
2022/10/16 12:00:42;;;;;;;;;;;18.20;82.80;;;;;;5111900;28;19907;-89
2022/10/16 12:03:16;;;;;;;;;;;18.20;82.90;;;;;;5112489;28;19920;-85
2022/10/16 12:05:54;;;;;;;;;;;18.20;82.90;;;;;;5094995;28;20003;-86
2022/10/16 12:08:21;;;;;;;;;;;18.20;83.00;;;;;;5095073;28;19941;-86
2022/10/16 12:10:48;;;;;;;;;;;18.10;83.00;;;;;;5113143;28;19908;-87
2022/10/16 12:13:34;;;;;;;;;;;18.10;83.20;;;;;;5113158;28;19908;-87
2022/10/16 12:16:12;;;;;;;;;;;18.00;82.90;;;;;;5112586;28;19950;-90
2022/10/16 12:18:43;;;;;;;;;;;18.00;82.90;;;;;;5111228;28;19919;-88
2022/10/16 12:21:10;;;;;;;;;;;18.00;82.90;;;;;;5112057;28;19961;-87
2022/10/16 12:23:47;;;;;;;;;;;18.00;82.90;;;;;;5095011;28;19969;-90
2022/10/16 12:26:14;;;;;;;;;;;17.90;82.90;;;;;;5095586;28;19923;-87
2022/10/16 12:28:41;;;;;;;;;;;17.90;82.90;;;;;;5094656;28;19908;-85
2022/10/16 12:31:09;;;;;;;;;;;17.90;82.90;;;;;;5112424;28;19992;-88
2022/10/16 12:33:43;;;;;;;;;;;17.90;82.80;;;;;;5112423;28;19908;-88
2022/10/16 12:36:16;;;;;;;;;;;17.80;83.00;;;;;;5090030;28;20345;-86
2022/10/16 12:38:47;;;;;;;;;;;17.80;82.70;;;;;;5076082;28;20459;-87
2022/10/16 12:41:23;;;;;;;;;;;17.80;82.80;;;;;;5108717;28;20273;-85
2022/10/16 12:43:50;;;;;;;;;;;17.80;82.60;;;;;;5112642;28;19916;-87
2022/10/16 12:46:17;;;;;;;;;;;17.70;82.80;;;;;;5105354;28;19969;-86
2022/10/16 12:48:44;;;;;;;;;;;17.70;83.00;;;;;;5101317;28;19928;-86
2022/10/16 12:51:11;;;;;;;;;;;17.70;83.00;;;;;;5094955;28;19918;-86
2022/10/16 12:53:37;;;;;;;;;;;17.70;82.90;;;;;;5113003;28;19952;-86
2022/10/16 12:56:10;;;;;;;;;;;17.70;83.00;;;;;;5105420;28;19996;-85
2022/10/16 12:58:47;;;;;;;;;;;17.70;83.20;;;;;;5111868;28;20346;-87
2022/10/16 13:01:16;;;;;;;;;;;17.70;83.20;;;;;;5094209;28;19933;-86
2022/10/16 13:03:55;;;;;;;;;;;17.70;83.30;;;;;;5111778;28;19926;-85
2022/10/16 13:06:39;;;;;;;;;;;17.70;83.30;;;;;;5105520;28;19908;-88
2022/10/16 13:09:18;;;;;;;;;;;17.60;83.30;;;;;;5112384;28;19947;-86
2022/10/16 13:11:56;;;;;;;;;;;17.70;83.40;;;;;;5114908;28;20373;-87
2022/10/16 13:14:49;;;;;;;;;;;17.60;83.30;;;;;;5115536;28;19927;-86
2022/10/16 13:17:45;;;;;;;;;;;17.60;83.40;;;;;;5110541;28;19908;-86
2022/10/16 13:20:15;;;;;;;;;;;17.60;83.40;;;;;;5099065;28;19922;-86
2022/10/16 13:22:41;;;;;;;;;;;17.60;83.40;;;;;;5115937;28;19930;-87
2022/10/16 13:25:18;;;;;;;;;;;17.50;83.80;;;;;;5116818;28;19912;-88
2022/10/16 13:27:54;;;;;;;;;;;17.50;83.80;;;;;;5101907;28;19934;-87
2022/10/16 13:30:25;;;;;;;;;;;17.50;83.80;;;;;;5097960;28;19943;-87
2022/10/16 13:32:59;;;;;;;;;;;17.50;83.90;;;;;;5116149;28;19962;-87
2022/10/16 13:35:29;;;;;;;;;;;17.50;83.80;;;;;;5098288;28;19916;-86
2022/10/16 13:38:05;;;;;;;;;;;17.50;84.00;;;;;;5110895;28;20321;-87
2022/10/16 13:40:34;;;;;;;;;;;17.50;84.00;;;;;;5115464;28;19934;-87
2022/10/16 13:43:01;;;;;;;;;;;17.60;83.80;;;;;;5096165;28;19923;-86
2022/10/16 13:45:28;;;;;;;;;;;17.50;83.90;;;;;;5104889;28;19912;-87
2022/10/16 15:28:35;;;;;;;;;;;17.50;82.40;;;;;;5092228;28;19930;-90
2022/10/16 15:31:02;;;;;;;;;;;17.40;86.60;;;;;;5116669;27;20031;-83
2022/10/16 15:33:32;;;;;;;;;;;17.30;89.30;;;;;;5133645;27;20362;-80
2022/10/16 15:35:59;;;;;;;;;;;16.90;90.70;;;;;;5132022;27;19950;-79
2022/10/16 15:38:26;;;;;;;;;;;16.70;91.30;;;;;;5082866;28;19956;-80
2022/10/16 15:40:53;;;;;;;;;;;16.50;92.30;;;;;;5101412;27;20388;-80
2022/10/16 15:43:19;;;;;;;;;;;16.50;92.50;;;;;;5115395;27;19922;-79
2022/10/16 15:46:15;;;;;;;;;;;16.20;93.00;;;;;;5133991;27;19907;-79
2022/10/16 15:48:43;;;;;;;;;;;16.30;93.70;;;;;;5115942;27;19911;-79
2022/10/16 15:51:09;;;;;;;;;;;16.20;94.70;;;;;;5105854;27;20323;-82
2022/10/16 15:53:36;;;;;;;;;;;16.10;94.90;;;;;;5130075;27;19923;-79
2022/10/16 15:56:06;;;;;;;;;;;16.10;95.40;;;;;;5120787;27;19912;-77
2022/10/16 15:58:32;;;;;;;;;;;16.10;95.60;;;;;;5126603;27;19955;-81
2022/10/16 16:01:03;;;;;;;;;;;15.90;95.80;;;;;;5130792;27;19955;-79
2022/10/16 16:03:30;;;;;;;;;;;15.90;95.90;;;;;;5133387;27;19915;-78
2022/10/16 16:05:57;;;;;;;;;;;15.80;96.10;;;;;;5115279;27;19907;-79
2022/10/16 16:08:23;;;;;;;;;;;15.90;96.20;;;;;;5106243;28;19970;-78
2022/10/16 16:11:00;;;;;;;;;;;15.80;96.30;;;;;;5121382;27;20626;-75
2022/10/16 16:13:26;;;;;;;;;;;15.80;96.40;;;;;;5089506;27;20335;-77
2022/10/16 16:15:53;;;;;;;;;;;15.70;96.50;;;;;;5133858;27;20365;-74
2022/10/16 16:18:20;;;;;;;;;;;15.80;96.60;;;;;;5103335;27;19954;-76
2022/10/16 16:20:47;;;;;;;;;;;15.70;96.70;;;;;;5124790;27;19907;-77
2022/10/16 16:23:14;;;;;;;;;;;15.70;96.80;;;;;;5133253;27;20277;-76
2022/10/16 16:25:40;;;;;;;;;;;15.60;96.70;;;;;;5133559;27;19911;-76
2022/10/16 16:28:07;;;;;;;;;;;15.60;96.70;;;;;;5129827;27;20007;-75
2022/10/16 16:30:34;;;;;;;;;;;15.50;96.90;;;;;;5097448;27;19927;-77
2022/10/16 16:33:00;;;;;;;;;;;15.60;97.00;;;;;;5133210;27;19918;-76
2022/10/16 16:35:27;;;;;;;;;;;15.50;97.00;;;;;;5133475;27;19964;-79
2022/10/16 16:37:54;;;;;;;;;;;15.30;96.70;;;;;;5129777;27;19971;-76
2022/10/16 16:40:20;;;;;;;;;;;15.30;96.70;;;;;;5131795;27;19908;-77
2022/10/16 16:42:50;;;;;;;;;;;15.30;96.90;;;;;;5133620;28;19915;-77
2022/10/16 16:45:16;;;;;;;;;;;15.30;96.90;;;;;;5134199;27;19907;-78
2022/10/16 16:47:43;;;;;;;;;;;15.20;96.90;;;;;;5114573;28;19916;-78
2022/10/16 16:50:09;;;;;;;;;;;15.20;96.80;;;;;;5112792;27;19923;-80
2022/10/16 16:52:36;;;;;;;;;;;15.20;97.00;;;;;;5119141;28;19904;-80
2022/10/16 16:55:03;;;;;;;;;;;15.30;97.10;;;;;;5119653;27;20380;-79
2022/10/16 16:57:30;;;;;;;;;;;15.20;97.00;;;;;;5118378;27;19919;-79
2022/10/16 16:59:56;;;;;;;;;;;15.30;97.00;;;;;;5119100;28;20011;-81
2022/10/16 17:02:23;;;;;;;;;;;15.30;97.00;;;;;;5118771;27;19911;-80
2022/10/16 17:04:50;;;;;;;;;;;15.30;96.90;;;;;;5119241;27;20366;-80
2022/10/16 17:07:17;;;;;;;;;;;15.30;96.90;;;;;;5118203;28;19907;-80
2022/10/16 17:09:43;;;;;;;;;;;15.20;96.80;;;;;;5119086;28;20285;-81
2022/10/16 17:12:10;;;;;;;;;;;15.30;96.80;;;;;;5119312;28;20430;-80
2022/10/16 17:14:37;;;;;;;;;;;15.30;96.70;;;;;;5118998;28;19908;-81
2022/10/16 17:17:06;;;;;;;;;;;15.30;96.80;;;;;;5119184;28;20400;-81
2022/10/16 17:19:34;;;;;;;;;;;15.40;96.80;;;;;;5118785;28;19918;-81
2022/10/16 17:22:01;;;;;;;;;;;15.30;96.60;;;;;;5119094;28;19944;-82
2022/10/16 17:24:27;;;;;;;;;;;15.30;96.60;;;;;;5118345;27;19920;-81
2022/10/16 17:26:54;;;;;;;;;;;15.40;96.60;;;;;;5116392;28;19930;-82
2022/10/16 17:29:20;;;;;;;;;;;15.40;96.60;;;;;;5113525;28;19927;-82
2022/10/16 17:31:48;;;;;;;;;;;15.40;96.60;;;;;;5106232;28;20380;-82
2022/10/16 17:34:15;;;;;;;;;;;15.30;96.50;;;;;;5110131;28;20236;-82
2022/10/16 17:36:42;;;;;;;;;;;15.30;96.50;;;;;;5115503;28;19957;-82
2022/10/16 17:39:10;;;;;;;;;;;15.30;96.50;;;;;;5116903;27;19915;-82
2022/10/16 17:41:36;;;;;;;;;;;15.30;96.50;;;;;;5139561;27;20363;-82
2022/10/16 17:44:04;;;;;;;;;;;15.30;96.50;;;;;;5113340;27;19923;-81
2022/10/16 17:46:31;;;;;;;;;;;15.30;96.50;;;;;;5130018;27;20296;-82
2022/10/16 17:48:58;;;;;;;;;;;15.40;96.60;;;;;;5137582;27;20326;-82
2022/10/16 17:51:25;;;;;;;;;;;15.30;96.50;;;;;;5139472;27;19918;-79
2022/10/16 17:53:53;;;;;;;;;;;15.40;96.50;;;;;;5122719;27;19940;-84
2022/10/16 17:56:20;;;;;;;;;;;15.40;96.60;;;;;;5117151;27;19972;-84
2022/10/16 17:58:50;;;;;;;;;;;15.40;96.60;;;;;;5097289;27;19908;-83
2022/10/16 18:01:21;;;;;;;;;;;15.40;96.60;;;;;;5116556;27;19912;-83
2022/10/16 18:03:51;;;;;;;;;;;15.40;96.50;;;;;;5112745;27;19961;-83
2022/10/16 18:06:18;;;;;;;;;;;15.50;96.60;;;;;;5116890;27;20438;-83
2022/10/16 18:08:44;;;;;;;;;;;15.50;96.60;;;;;;5119104;27;19912;-83
2022/10/16 18:11:11;;;;;;;;;;;15.50;96.60;;;;;;5115412;27;20377;-82
2022/10/16 18:13:38;;;;;;;;;;;15.50;96.50;;;;;;5115274;28;19904;-80
2022/10/16 18:16:05;;;;;;;;;;;15.50;96.30;;;;;;5115157;28;19915;-85
2022/10/16 18:18:32;;;;;;;;;;;15.50;96.40;;;;;;5114570;28;19912;-85
2022/10/16 18:20:59;;;;;;;;;;;15.50;96.20;;;;;;5115047;28;20370;-88
2022/10/16 18:23:26;;;;;;;;;;;15.50;96.00;;;;;;5097046;28;19947;-87
2022/10/16 18:25:52;;;;;;;;;;;15.50;96.00;;;;;;5114892;28;19914;-84
2022/10/16 18:28:19;;;;;;;;;;;15.40;95.50;;;;;;5110020;28;19908;-83
2022/10/16 18:30:53;;;;;;;;;;;15.40;95.40;;;;;;5108666;27;19928;-84
2022/10/16 18:33:20;;;;;;;;;;;15.40;94.90;;;;;;5114822;28;19922;-83
2022/10/16 18:35:47;;;;;;;;;;;15.40;94.70;;;;;;5114674;28;19908;-83
2022/10/16 18:38:13;;;;;;;;;;;15.50;94.50;;;;;;5109085;27;19912;-82
2022/10/16 18:40:40;;;;;;;;;;;15.60;94.60;;;;;;5113729;27;19918;-84
2022/10/16 18:43:07;;;;;;;;;;;15.50;94.20;;;;;;5130447;27;19921;-82
2022/10/16 18:45:33;;;;;;;;;;;15.60;94.30;;;;;;5117975;27;19915;-84
2022/10/16 18:48:00;;;;;;;;;;;15.60;94.50;;;;;;5117651;27;20002;-83
2022/10/16 18:50:27;;;;;;;;;;;15.70;94.50;;;;;;5118002;27;19946;-84
2022/10/16 18:52:53;;;;;;;;;;;15.60;94.00;;;;;;5118698;27;20065;-83
2022/10/16 18:55:20;;;;;;;;;;;15.60;93.20;;;;;;5123860;27;19911;-83
2022/10/16 18:57:47;;;;;;;;;;;15.70;93.60;;;;;;5119476;27;19914;-84
2022/10/16 19:00:13;;;;;;;;;;;15.70;94.00;;;;;;5117243;27;19912;-84
2022/10/16 19:02:40;;;;;;;;;;;15.70;93.70;;;;;;5109139;28;19916;-84
2022/10/16 19:05:08;;;;;;;;;;;15.70;94.00;;;;;;5110975;28;19955;-81
2022/10/16 19:07:35;;;;;;;;;;;15.60;93.70;;;;;;5112255;28;19916;-84
2022/10/16 19:10:01;;;;;;;;;;;15.50;93.80;;;;;;5116469;27;19911;-87
2022/10/16 19:12:28;;;;;;;;;;;15.50;93.90;;;;;;5114231;28;19911;-86
2022/10/16 19:14:55;;;;;;;;;;;15.40;94.30;;;;;;5114555;28;19920;-83
2022/10/16 20:07:53;;;;;;;;;;;14.70;97.70;;;;;;5107819;27;19980;-73
2022/10/16 20:10:20;;;;;;;;;;;14.80;97.80;;;;;;5112394;27;19950;-75
2022/10/16 20:12:46;;;;;;;;;;;14.70;97.70;;;;;;5117068;27;19939;-78
2022/10/16 20:15:13;;;;;;;;;;;14.70;97.80;;;;;;5133111;27;19915;-74
2022/10/16 20:17:40;;;;;;;;;;;14.80;97.90;;;;;;5132919;27;20284;-73
2022/10/16 20:20:07;;;;;;;;;;;14.80;98.00;;;;;;5132750;27;20321;-73
2022/10/16 20:22:34;;;;;;;;;;;14.80;98.00;;;;;;5123299;27;19943;-73
2022/10/16 20:25:00;;;;;;;;;;;14.80;98.00;;;;;;5119060;27;19908;-73
2022/10/16 20:27:27;;;;;;;;;;;14.80;98.00;;;;;;5117972;27;19950;-74
2022/10/16 20:29:54;;;;;;;;;;;14.80;98.10;;;;;;5119587;27;19908;-73
2022/10/16 20:32:21;;;;;;;;;;;14.80;98.10;;;;;;5121719;27;19918;-73
2022/10/16 20:34:48;;;;;;;;;;;14.80;98.20;;;;;;5126212;27;19911;-75
2022/10/16 20:37:15;;;;;;;;;;;14.80;98.20;;;;;;5119674;27;20262;-76
2022/10/16 20:39:42;;;;;;;;;;;14.70;98.20;;;;;;5107934;27;19912;-75
2022/10/16 20:42:08;;;;;;;;;;;14.70;98.30;;;;;;5109686;28;19912;-76
2022/10/16 20:44:35;;;;;;;;;;;14.70;98.30;;;;;;5109109;28;19916;-76
2022/10/16 20:47:02;;;;;;;;;;;14.60;98.20;;;;;;5099814;28;19912;-76
2022/10/16 20:49:29;;;;;;;;;;;14.40;98.10;;;;;;5115427;28;19911;-76
2022/10/16 20:51:55;;;;;;;;;;;14.30;98.20;;;;;;5118313;28;20365;-77
2022/10/16 20:54:22;;;;;;;;;;;14.30;98.30;;;;;;5112874;28;19912;-78
2022/10/16 20:56:51;;;;;;;;;;;14.40;98.30;;;;;;5115050;28;19957;-77
2022/10/16 20:59:19;;;;;;;;;;;14.40;98.40;;;;;;5124344;28;19919;-75
2022/10/16 21:01:45;;;;;;;;;;;14.40;98.40;;;;;;5121025;28;19923;-78
2022/10/16 21:04:12;;;;;;;;;;;14.50;98.50;;;;;;5114509;28;19919;-78
2022/10/16 21:06:39;;;;;;;;;;;14.50;98.40;;;;;;5132531;28;19912;-75
